createdAt,value
2022-08-01T00:00:10.641Z,100882.56
2022-08-01T00:02:39.766Z,100885.56
2022-08-01T00:05:09.274Z,100883.84
2022-08-01T00:07:37.442Z,100885.34
2022-08-01T00:10:09.244Z,100895.59
2022-08-01T00:12:37.481Z,100886.91
2022-08-01T00:15:06.489Z,100894.94
2022-08-01T00:17:34.370Z,100886.06
2022-08-01T00:20:03.312Z,100884.03
2022-08-01T00:22:32.527Z,100898.09
2022-08-01T00:25:00.806Z,100892.06
2022-08-01T00:27:30.273Z,100895.91
2022-08-01T00:30:14.013Z,100894.84
2022-08-01T00:32:43.177Z,100900.41
2022-08-01T00:35:11.724Z,100901.56
2022-08-01T00:37:39.706Z,100902.31
2022-08-01T00:40:09.328Z,100903.47
2022-08-01T00:42:43.330Z,100908.44
2022-08-01T00:45:12.323Z,100904.34
2022-08-01T00:47:40.838Z,100907.16
2022-08-01T00:50:11.082Z,100901.03
2022-08-01T00:52:41.411Z,100907.78
2022-08-01T00:55:13.074Z,100908.44
2022-08-01T00:58:03.184Z,100908.53
2022-08-01T01:00:44.833Z,100900.41
2022-08-01T01:03:43.548Z,100896.31
2022-08-01T01:06:43.999Z,100897.16
2022-08-01T01:09:26.064Z,100899.41
2022-08-01T01:12:06.165Z,100896.31
2022-08-01T01:14:47.814Z,100890.22
2022-08-01T01:17:49.735Z,100892.75
2022-08-01T01:20:10.305Z,100893.94
2022-08-01T01:22:53.052Z,100904.25
2022-08-01T01:25:41.864Z,100898.88
2022-08-01T01:28:22.551Z,100898.44
2022-08-01T01:30:55.629Z,100901.53
2022-08-01T01:33:26.149Z,100900.56
2022-08-01T01:36:00.244Z,100897.97
2022-08-01T01:38:44.063Z,100907.16
2022-08-01T01:41:16.367Z,100808.13
2022-08-01T01:43:45.978Z,100791.31
2022-08-01T01:46:23.529Z,100838.00
2022-08-01T01:48:59.224Z,100858.28
2022-08-01T01:51:39.683Z,100870.50
2022-08-01T01:54:10.546Z,100890.91
2022-08-01T01:56:49.588Z,100897.13
2022-08-01T01:59:25.630Z,100903.44
2022-08-01T02:02:08.729Z,100907.94
2022-08-01T02:04:40.016Z,100912.22
2022-08-01T02:07:11.410Z,100921.41
2022-08-01T02:09:43.848Z,100921.19
2022-08-01T02:12:13.499Z,100920.50
2022-08-01T02:14:46.003Z,100931.97
2022-08-01T02:17:19.639Z,100936.19
2022-08-01T02:19:47.892Z,100930.25
2022-08-01T02:22:22.121Z,100942.34
2022-08-01T02:24:54.620Z,100938.22
2022-08-01T02:27:26.988Z,100932.97
2022-08-01T02:30:00.476Z,100937.19
2022-08-01T02:32:34.148Z,100931.63
2022-08-01T02:35:03.543Z,100945.69
2022-08-01T02:37:35.936Z,100938.16
2022-08-01T02:40:04.396Z,100942.75
2022-08-01T02:42:34.382Z,100945.47
2022-08-01T02:45:04.493Z,100945.47
2022-08-01T02:47:36.519Z,100949.31
2022-08-01T02:50:05.711Z,100948.84
2022-08-01T02:52:35.049Z,100956.03
2022-08-01T02:55:03.876Z,100955.16
2022-08-01T02:57:52.159Z,100950.25
2022-08-01T03:00:23.659Z,100951.69
2022-08-01T03:03:00.210Z,100946.69
2022-08-01T03:05:29.241Z,100941.53
2022-08-01T03:08:01.453Z,100949.47
2022-08-01T03:10:33.564Z,100950.03
2022-08-01T03:13:03.604Z,100956.81
2022-08-01T03:15:34.876Z,100951.84
2022-08-01T03:18:08.539Z,100964.16
2022-08-01T03:20:37.500Z,100965.97
2022-08-01T03:23:08.025Z,100972.00
2022-08-01T03:25:38.764Z,100967.03
2022-08-01T03:28:09.079Z,100967.53
2022-08-01T03:30:40.201Z,100972.69
2022-08-01T03:33:10.000Z,100977.03
2022-08-01T03:35:47.852Z,100977.22
2022-08-01T03:38:21.108Z,100969.31
2022-08-01T03:40:55.849Z,100970.53
2022-08-01T03:43:36.376Z,100963.47
2022-08-01T03:46:09.501Z,100954.16
2022-08-01T03:48:43.112Z,100964.41
2022-08-01T03:51:12.378Z,100967.34
2022-08-01T03:53:44.739Z,100967.09
2022-08-01T03:56:20.090Z,100966.53
2022-08-01T03:58:50.134Z,100971.66
2022-08-01T04:01:19.921Z,100972.44
2022-08-01T04:03:49.407Z,100978.47
2022-08-01T04:06:18.308Z,100980.38
2022-08-01T04:08:56.452Z,100990.88
2022-08-01T04:11:26.835Z,100991.94
2022-08-01T04:13:55.710Z,100999.69
2022-08-01T04:16:25.860Z,101001.94
2022-08-01T04:18:55.243Z,101001.06
2022-08-01T04:21:28.959Z,101008.31
2022-08-01T04:24:00.110Z,101006.59
2022-08-01T04:26:29.624Z,101015.56
2022-08-01T04:28:59.110Z,101017.13
2022-08-01T04:31:31.116Z,101019.03
2022-08-01T04:34:06.100Z,101018.16
2022-08-01T04:36:35.400Z,101009.84
2022-08-01T04:39:06.764Z,101018.03
2022-08-01T04:41:37.472Z,101033.00
2022-08-01T04:44:06.573Z,101031.44
2022-08-01T04:46:37.846Z,101031.44
2022-08-01T04:49:10.142Z,101028.34
2022-08-01T04:51:38.164Z,101038.69
2022-08-01T04:54:08.405Z,101032.56
2022-08-01T04:56:36.481Z,101048.53
2022-08-01T04:59:22.571Z,101042.66
2022-08-01T05:01:51.868Z,101054.97
2022-08-01T05:04:21.588Z,101059.03
2022-08-01T05:06:49.823Z,101055.06
2022-08-01T05:09:18.302Z,101045.06
2022-08-01T05:11:46.327Z,101055.75
2022-08-01T05:14:16.728Z,101046.75
2022-08-01T05:16:47.675Z,101055.94
2022-08-01T05:19:16.340Z,101055.06
2022-08-01T05:21:46.869Z,101046.19
2022-08-01T05:24:14.975Z,101054.41
2022-08-01T05:26:52.441Z,101055.78
2022-08-01T05:29:20.879Z,101053.78
2022-08-01T05:31:51.105Z,101046.38
2022-08-01T05:34:19.737Z,101069.34
2022-08-01T05:36:52.918Z,101061.97
2022-08-01T05:39:27.728Z,101082.13
2022-08-01T05:41:55.929Z,101073.50
2022-08-01T05:44:25.221Z,101066.81
2022-08-01T05:46:55.351Z,101078.63
2022-08-01T05:49:25.936Z,101073.53
2022-08-01T05:51:55.943Z,101080.09
2022-08-01T05:54:24.147Z,101074.50
2022-08-01T05:56:53.400Z,101084.19
2022-08-01T05:59:22.486Z,101080.09
2022-08-01T06:01:51.619Z,101084.25
2022-08-01T06:04:19.746Z,101080.22
2022-08-01T06:06:47.832Z,101085.22
2022-08-01T06:09:17.540Z,101083.59
2022-08-01T06:11:45.893Z,101086.59
2022-08-01T06:14:14.964Z,101080.25
2022-08-01T06:16:46.248Z,101079.50
2022-08-01T06:19:14.566Z,101097.63
2022-08-01T06:21:42.396Z,101091.16
2022-08-01T06:24:18.950Z,101108.41
2022-08-01T06:26:52.347Z,101083.66
2022-08-01T06:29:35.901Z,101113.13
2022-08-01T06:32:04.346Z,101095.34
2022-08-01T06:34:34.290Z,101086.47
2022-08-01T06:37:06.266Z,101112.88
2022-08-01T06:39:38.414Z,101126.06
2022-08-01T06:42:08.581Z,101101.84
2022-08-01T06:44:39.284Z,101136.97
2022-08-01T06:47:07.254Z,101122.34
2022-08-01T06:49:41.201Z,101135.97
2022-08-01T06:52:11.399Z,101136.31
2022-08-01T06:54:41.170Z,101132.75
2022-08-01T06:57:10.283Z,101149.25
2022-08-01T06:59:40.625Z,101150.91
2022-08-01T07:02:21.499Z,101121.84
2022-08-01T07:04:51.605Z,101145.47
2022-08-01T07:07:27.569Z,101152.28
2022-08-01T07:10:06.988Z,101159.16
2022-08-01T07:12:37.631Z,101151.84
2022-08-01T07:15:12.391Z,101144.44
2022-08-01T07:17:41.043Z,101159.50
2022-08-01T07:20:51.119Z,101171.75
2022-08-01T07:23:40.180Z,101173.00
2022-08-01T07:26:17.238Z,101168.63
2022-08-01T07:29:10.146Z,101200.16
2022-08-01T07:31:49.581Z,101207.75
2022-08-01T07:34:28.966Z,101243.94
2022-08-01T07:37:08.926Z,101258.97
2022-08-01T07:39:44.787Z,101311.75
2022-08-01T07:42:22.823Z,101367.47
2022-08-01T07:44:50.939Z,101411.53
2022-08-01T07:47:37.708Z,101447.38
2022-08-01T07:50:16.918Z,101486.06
2022-08-01T07:52:49.718Z,101469.00
2022-08-01T07:58:14.786Z,101511.84
2022-08-01T08:00:43.203Z,101535.44
2022-08-01T08:03:11.512Z,101551.91
2022-08-01T08:05:58.443Z,101611.56
2022-08-01T08:08:31.115Z,101622.66
2022-08-01T08:10:59.314Z,101638.66
2022-08-01T08:13:28.851Z,101688.13
2022-08-01T08:15:57.116Z,101746.09
2022-08-01T08:18:26.370Z,101678.31
2022-08-01T08:20:54.839Z,101550.03
2022-08-01T08:23:42.596Z,101327.00
2022-08-01T08:26:12.111Z,101093.44
2022-08-01T08:28:41.858Z,100866.53
2022-08-01T08:31:50.617Z,100582.06
2022-08-01T08:33:58.616Z,100446.88
2022-08-01T08:36:30.851Z,100661.53
2022-08-01T08:39:03.332Z,100786.69
2022-08-01T08:41:36.917Z,100913.56
2022-08-01T08:44:10.273Z,100843.81
2022-08-01T08:46:43.545Z,100861.00
2022-08-01T08:49:13.689Z,100844.38
2022-08-01T08:51:44.359Z,100853.34
2022-08-01T08:54:14.823Z,100913.06
2022-08-01T08:56:44.047Z,101011.81
2022-08-01T08:59:15.781Z,100995.06
2022-08-01T09:01:44.614Z,100988.19
2022-08-01T09:04:14.150Z,100976.91
2022-08-01T09:06:43.137Z,100977.66
2022-08-01T09:09:13.223Z,100955.97
2022-08-01T09:11:42.152Z,100956.03
2022-08-01T09:14:12.658Z,100935.16
2022-08-01T09:16:48.809Z,100905.63
2022-08-01T09:19:39.882Z,100944.22
2022-08-01T09:22:13.250Z,100914.03
2022-08-01T09:24:44.350Z,100912.44
2022-08-01T09:27:22.053Z,100917.25
2022-08-01T09:30:01.162Z,100913.06
2022-08-01T09:32:36.824Z,100893.28
2022-08-01T09:35:30.239Z,100915.13
2022-08-01T09:38:21.032Z,100942.91
2022-08-01T09:40:51.276Z,100981.75
2022-08-01T09:43:20.494Z,100965.47
2022-08-01T09:45:50.767Z,100964.19
2022-08-01T09:48:28.672Z,100873.53
2022-08-01T09:51:09.474Z,100863.13
2022-08-01T09:53:52.622Z,100864.53
2022-08-01T09:56:23.096Z,100849.25
2022-08-01T09:59:01.599Z,100869.41
2022-08-01T10:01:36.860Z,100880.88
2022-08-01T10:04:13.522Z,100888.28
2022-08-01T10:06:45.461Z,100891.03
2022-08-01T10:09:16.174Z,100873.09
2022-08-01T10:11:45.497Z,100906.94
2022-08-01T10:14:18.090Z,100953.75
2022-08-01T10:16:53.142Z,100929.47
2022-08-01T10:19:28.979Z,100864.06
2022-08-01T10:22:00.336Z,100919.13
2022-08-01T10:24:31.291Z,100847.22
2022-08-01T10:27:08.362Z,100896.03
2022-08-01T10:29:46.364Z,100837.13
2022-08-01T10:32:19.045Z,100851.97
2022-08-01T10:34:56.557Z,100869.78
2022-08-01T10:37:31.540Z,100852.28
2022-08-01T10:40:31.165Z,100905.69
2022-08-01T10:43:11.179Z,100874.47
2022-08-01T10:46:01.186Z,100850.66
2022-08-01T10:48:45.883Z,100861.75
2022-08-01T10:51:19.122Z,100811.59
2022-08-01T10:53:54.812Z,100809.63
2022-08-01T10:56:27.762Z,100791.44
2022-08-01T10:59:06.606Z,100838.06
2022-08-01T11:01:49.601Z,100831.72
2022-08-01T11:04:49.136Z,100810.53
2022-08-01T11:07:51.293Z,100743.06
2022-08-01T11:10:27.037Z,100772.78
2022-08-01T11:13:14.084Z,100791.16
2022-08-01T11:22:42.775Z,100756.81
2022-08-01T11:26:18.208Z,100793.13
2022-08-01T11:29:22.104Z,100778.03
2022-08-01T11:31:53.204Z,100756.44
2022-08-01T11:34:54.770Z,100756.41
2022-08-01T11:37:30.497Z,100786.47
2022-08-01T11:40:31.799Z,100741.47
2022-08-01T11:43:19.966Z,100767.53
2022-08-01T11:46:07.236Z,100789.72
2022-08-01T11:48:44.421Z,100808.13
2022-08-01T11:51:25.326Z,100809.81
2022-08-01T11:54:04.043Z,100780.31
2022-08-01T11:56:33.471Z,100836.88
2022-08-01T11:59:02.030Z,100805.28
2022-08-01T12:01:38.130Z,100799.50
2022-08-01T12:04:12.327Z,100811.19
2022-08-01T12:06:54.078Z,100794.63
2022-08-01T12:09:25.875Z,100803.06
2022-08-01T12:11:56.701Z,100792.03
2022-08-01T12:14:29.938Z,100796.16
2022-08-01T12:17:04.417Z,100784.50
2022-08-01T12:19:33.627Z,100726.53
2022-08-01T12:25:31.705Z,100770.34
2022-08-01T12:28:06.522Z,100793.75
2022-08-01T12:30:37.323Z,100789.31
2022-08-01T12:33:20.618Z,100821.66
2022-08-01T12:35:49.812Z,100774.66
2022-08-01T12:38:19.928Z,100751.94
2022-08-01T12:40:53.397Z,100743.50
2022-08-01T12:43:28.581Z,100743.63
2022-08-01T12:46:00.412Z,100729.22
2022-08-01T12:48:33.050Z,100715.88
2022-08-01T12:51:03.375Z,100723.50
2022-08-01T12:53:40.665Z,100727.38
2022-08-01T12:56:10.594Z,100764.88
2022-08-01T13:01:37.094Z,100759.41
2022-08-01T13:04:07.669Z,100811.63
2022-08-01T13:06:41.320Z,100731.44
2022-08-01T13:09:14.410Z,100759.91
2022-08-01T13:12:02.853Z,100785.81
2022-08-01T13:14:41.662Z,100787.94
2022-08-01T13:21:14.578Z,100740.38
2022-08-01T13:24:08.706Z,100733.44
2022-08-01T13:26:48.522Z,100790.03
2022-08-01T13:29:19.996Z,100773.09
2022-08-01T13:32:32.529Z,100809.59
2022-08-01T13:35:11.722Z,100816.38
2022-08-01T13:37:46.730Z,100768.25
2022-08-01T13:40:30.384Z,100783.91
2022-08-01T13:42:59.009Z,100762.88
2022-08-01T13:45:33.486Z,100767.22
2022-08-01T13:48:12.020Z,100717.63
2022-08-01T13:51:07.331Z,100713.28
2022-08-01T13:53:39.005Z,100647.84
2022-08-01T13:56:08.171Z,100658.53
2022-08-01T13:58:37.678Z,100649.50
2022-08-01T14:01:07.423Z,100640.50
2022-08-01T14:03:35.699Z,100671.81
2022-08-01T14:06:07.193Z,100714.81
2022-08-01T14:08:35.751Z,100674.47
2022-08-01T14:11:11.855Z,100715.00
2022-08-01T14:13:50.704Z,100735.41
2022-08-01T14:16:19.482Z,100721.94
2022-08-01T14:18:52.940Z,100718.91
2022-08-01T14:21:27.501Z,100719.94
2022-08-01T14:23:59.018Z,100718.53
2022-08-01T14:27:03.463Z,100643.69
2022-08-01T14:30:02.798Z,100668.88
2022-08-01T14:32:30.357Z,100708.41
2022-08-01T14:35:04.262Z,100662.25
2022-08-01T14:37:38.041Z,100684.69
2022-08-01T14:40:23.875Z,100671.09
2022-08-01T14:42:56.395Z,100646.06
2022-08-01T14:45:28.902Z,100659.22
2022-08-01T14:47:57.858Z,100602.22
2022-08-01T14:53:28.007Z,100680.81
2022-08-01T14:55:56.687Z,100709.22
2022-08-01T14:58:31.214Z,100712.91
2022-08-01T15:01:03.463Z,100692.53
2022-08-01T15:03:32.802Z,100697.97
2022-08-01T15:06:26.691Z,100697.22
2022-08-01T15:11:49.508Z,100688.28
2022-08-01T15:14:37.008Z,100651.59
2022-08-01T15:17:12.920Z,100701.69
2022-08-01T15:19:43.670Z,100682.94
2022-08-01T15:22:12.788Z,100711.09
2022-08-01T15:24:42.023Z,100629.44
2022-08-01T15:27:10.701Z,100680.00
2022-08-01T15:29:40.472Z,100710.44
2022-08-01T15:32:09.751Z,100672.63
2022-08-01T15:34:39.178Z,100713.34
2022-08-01T15:37:33.979Z,100670.09
2022-08-01T15:40:26.380Z,100643.78
2022-08-01T15:43:06.301Z,100636.94
2022-08-01T15:45:48.355Z,100657.97
2022-08-01T15:48:19.228Z,100661.25
2022-08-01T15:51:02.174Z,100704.53
2022-08-01T15:53:31.560Z,100636.56
2022-08-01T15:56:22.039Z,100667.34
2022-08-01T15:59:04.057Z,100613.53
2022-08-01T16:01:43.159Z,100596.88
2022-08-01T16:04:16.853Z,100588.59
2022-08-01T16:06:52.707Z,100592.69
2022-08-01T16:09:24.622Z,100597.66
2022-08-01T16:12:00.567Z,100632.72
2022-08-01T16:14:30.895Z,100619.41
2022-08-01T16:17:00.273Z,100607.19
2022-08-01T16:19:28.334Z,100571.56
2022-08-01T16:21:56.603Z,100576.34
2022-08-01T16:24:29.119Z,100587.97
2022-08-01T16:26:57.457Z,100620.91
2022-08-01T16:29:30.819Z,100566.91
2022-08-01T16:32:17.014Z,100569.91
2022-08-01T16:34:48.722Z,100578.22
2022-08-01T16:37:16.769Z,100568.28
2022-08-01T16:39:45.603Z,100594.47
2022-08-01T16:42:32.237Z,100613.88
2022-08-01T16:45:04.062Z,100592.47
2022-08-01T16:47:43.999Z,100558.53
2022-08-01T16:50:14.572Z,100539.22
2022-08-01T16:52:45.315Z,100567.88
2022-08-01T16:55:21.147Z,100584.16
2022-08-01T16:57:49.548Z,100565.66
2022-08-01T17:00:22.676Z,100563.75
2022-08-01T17:02:54.426Z,100597.97
2022-08-01T17:05:26.409Z,100585.94
2022-08-01T17:07:55.607Z,100593.94
2022-08-01T17:10:23.772Z,100549.75
2022-08-01T17:12:53.044Z,100557.47
2022-08-01T17:15:21.538Z,100551.63
2022-08-01T17:17:56.524Z,100553.09
2022-08-01T17:20:27.672Z,100550.81
2022-08-01T17:22:56.335Z,100514.25
2022-08-01T17:25:26.851Z,100500.16
2022-08-01T17:27:57.460Z,100548.53
2022-08-01T17:30:28.013Z,100530.63
2022-08-01T17:32:59.705Z,100521.63
2022-08-01T17:35:33.772Z,100517.44
2022-08-01T17:40:48.238Z,100534.69
2022-08-01T17:43:21.694Z,100542.03
2022-08-01T17:45:55.905Z,100527.28
2022-08-01T17:48:29.689Z,100503.38
2022-08-01T17:51:06.665Z,100499.50
2022-08-01T17:53:36.458Z,100493.31
2022-08-01T17:56:08.331Z,100504.97
2022-08-01T17:58:50.970Z,100477.69
2022-08-01T18:01:22.180Z,100500.41
2022-08-01T18:03:59.467Z,100476.75
2022-08-01T18:06:35.941Z,100469.34
2022-08-01T18:09:16.712Z,100484.56
2022-08-01T18:11:52.223Z,100519.91
2022-08-01T18:14:47.946Z,100484.78
2022-08-01T18:17:46.854Z,100477.56
2022-08-01T18:20:26.097Z,100466.22
2022-08-01T18:23:15.764Z,100499.47
2022-08-01T18:28:54.319Z,100509.41
2022-08-01T18:31:27.977Z,100505.97
2022-08-01T18:34:01.599Z,100479.78
2022-08-01T18:36:58.877Z,100461.94
2022-08-01T18:50:47.584Z,100523.63
2022-08-01T18:55:53.674Z,100582.94
2022-08-01T19:10:25.503Z,100953.88
2022-08-01T19:13:05.226Z,101064.25
2022-08-01T19:15:33.544Z,101303.75
2022-08-01T19:18:20.009Z,101527.69
2022-08-01T19:20:50.417Z,101540.31
2022-08-01T19:23:39.342Z,101556.94
2022-08-01T19:26:23.038Z,101644.25
2022-08-01T19:29:02.170Z,101644.56
2022-08-01T19:31:46.984Z,101629.97
2022-08-01T19:34:19.828Z,101694.69
2022-08-01T19:37:02.623Z,101600.41
2022-08-01T19:39:31.833Z,101470.31
2022-08-01T19:42:00.424Z,101289.88
2022-08-01T19:44:32.185Z,101268.38
2022-08-01T19:50:39.921Z,101407.44
2022-08-01T20:06:59.759Z,101804.47
2022-08-01T20:12:17.198Z,101847.25
2022-08-01T20:14:49.989Z,101854.53
2022-08-01T20:17:20.099Z,101833.28
2022-08-01T20:19:49.387Z,101859.00
2022-08-01T20:22:20.257Z,101798.81
2022-08-01T20:24:59.183Z,101802.81
2022-08-01T20:27:29.634Z,101811.63
2022-08-01T20:30:03.314Z,101784.88
2022-08-01T20:32:40.395Z,101774.28
2022-08-01T20:35:10.705Z,101760.13
2022-08-01T20:38:06.297Z,101735.31
2022-08-01T20:40:37.224Z,101702.78
2022-08-01T20:43:09.410Z,101698.59
2022-08-01T20:45:38.552Z,101694.78
2022-08-01T20:48:10.180Z,101663.16
2022-08-01T20:50:58.618Z,101652.38
2022-08-01T20:53:29.722Z,101635.13
2022-08-01T20:56:05.187Z,101625.78
2022-08-01T20:58:45.062Z,101645.81
2022-08-01T21:01:22.800Z,101647.25
2022-08-01T21:04:10.682Z,101634.06
2022-08-01T21:06:45.214Z,101627.59
2022-08-01T21:09:20.382Z,101590.78
2022-08-01T21:11:52.999Z,101598.53
2022-08-01T21:14:22.585Z,101595.31
2022-08-01T21:17:00.963Z,101584.63
2022-08-01T21:19:36.912Z,101613.31
2022-08-01T21:22:12.356Z,101637.53
2022-08-01T21:24:58.382Z,101615.09
2022-08-01T21:27:33.624Z,101618.16
2022-08-01T21:30:04.939Z,101612.91
2022-08-01T21:32:37.834Z,101619.84
2022-08-01T21:35:16.710Z,101600.97
2022-08-01T21:37:52.543Z,101582.09
2022-08-01T21:40:22.327Z,101596.09
2022-08-01T21:42:53.732Z,101561.47
2022-08-01T21:45:24.808Z,101545.56
2022-08-01T21:47:56.360Z,101534.22
2022-08-01T21:50:25.125Z,101532.75
2022-08-01T21:53:05.681Z,101525.88
2022-08-01T21:55:51.543Z,101497.13
2022-08-01T21:58:35.923Z,101512.75
2022-08-01T22:01:08.637Z,101494.16
2022-08-01T22:03:47.018Z,101502.66
2022-08-01T22:06:19.002Z,101508.53
2022-08-01T22:08:52.382Z,101500.53
2022-08-01T22:11:24.664Z,101516.88
2022-08-01T22:14:00.121Z,101520.69
2022-08-01T22:16:32.826Z,101506.38
2022-08-01T22:19:04.385Z,101481.53
2022-08-01T22:21:37.142Z,101487.75
2022-08-01T22:24:08.239Z,101476.13
2022-08-01T22:26:40.152Z,101476.31
2022-08-01T22:29:11.263Z,101464.19
2022-08-01T22:31:40.512Z,101438.88
2022-08-01T22:34:09.944Z,101438.53
2022-08-01T22:36:38.582Z,101432.31
2022-08-01T22:39:07.113Z,101440.75
2022-08-01T22:42:01.556Z,101461.31
2022-08-01T22:44:47.659Z,101468.41
2022-08-01T22:47:27.542Z,101462.22
2022-08-01T22:50:04.465Z,101433.75
2022-08-01T22:52:42.543Z,101441.59
2022-08-01T22:55:13.002Z,101423.31
2022-08-01T22:57:50.276Z,101425.94
2022-08-01T23:00:21.247Z,101440.16
2022-08-01T23:02:56.634Z,101429.84
2022-08-01T23:05:28.095Z,101427.94
2022-08-01T23:08:01.588Z,101414.31
2022-08-01T23:10:30.724Z,101426.59
2022-08-01T23:13:00.499Z,101432.84
2022-08-01T23:15:32.863Z,101420.34
2022-08-01T23:18:05.013Z,101425.28
2022-08-01T23:20:36.029Z,101399.97
2022-08-01T23:23:05.750Z,101422.09
2022-08-01T23:25:35.160Z,101422.72
2022-08-01T23:28:06.129Z,101415.03
2022-08-01T23:30:37.153Z,101420.16
2022-08-01T23:33:06.504Z,101403.47
2022-08-01T23:35:39.046Z,101404.94
2022-08-01T23:38:07.673Z,101391.06
2022-08-01T23:40:36.395Z,101399.69
2022-08-01T23:43:05.927Z,101396.16
2022-08-01T23:46:03.652Z,101382.72
2022-08-01T23:48:34.818Z,101385.34
2022-08-01T23:51:04.254Z,101383.72
2022-08-01T23:53:33.801Z,101386.47
2022-08-01T23:56:04.435Z,101385.56
2022-08-01T23:58:33.514Z,101392.22
